createdAt,value
2018-12-30T00:04:24.424Z,101705.31
2018-12-30T00:09:47.022Z,101698.82
2018-12-30T00:14:50.002Z,101716.61
2018-12-30T00:20:12.617Z,101712.64
2018-12-30T00:25:15.306Z,101722.81
2018-12-30T00:30:18.002Z,101738.42
2018-12-30T00:35:40.328Z,101744.45
2018-12-30T00:41:02.527Z,101776.50
2018-12-30T00:46:05.267Z,101752.08
2018-12-30T00:51:27.476Z,101776.02
2018-12-30T00:56:30.142Z,101798.78
2018-12-30T01:01:52.326Z,101826.84
2018-12-30T01:07:14.615Z,101837.23
2018-12-30T01:12:36.795Z,101885.27
2018-12-30T01:17:59.003Z,101769.80
2018-12-30T01:23:01.886Z,101916.08
2018-12-30T01:28:04.608Z,101930.03
2018-12-30T01:33:07.350Z,101946.55
2018-12-30T01:38:29.557Z,101954.75
2018-12-30T01:43:51.772Z,101982.20
2018-12-30T01:49:07.513Z,101992.73
2018-12-30T01:54:29.717Z,101980.39
2018-12-30T01:59:51.911Z,102004.03
2018-12-30T02:05:14.088Z,102034.86
2018-12-30T02:10:36.270Z,102029.75
2018-12-30T02:15:58.471Z,101899.31
2018-12-30T02:21:01.244Z,102051.12
2018-12-30T02:26:23.414Z,102077.77
2018-12-30T02:31:45.639Z,102091.52
2018-12-30T02:37:07.811Z,102085.47
2018-12-30T02:42:30.113Z,102100.87
2018-12-30T02:47:44.987Z,102106.88
2018-12-30T02:53:07.250Z,102133.91
2018-12-30T02:58:29.487Z,102125.16
2018-12-30T03:03:51.744Z,102128.72
2018-12-30T03:09:20.826Z,102146.97
2018-12-30T03:14:43.056Z,101878.53
2018-12-30T03:19:45.756Z,102153.97
2018-12-30T03:25:07.946Z,102156.20
2018-12-30T03:30:30.141Z,102164.48
2018-12-30T03:35:52.332Z,102137.19
2018-12-30T03:41:14.526Z,102188.84
2018-12-30T03:46:17.248Z,102198.45
2018-12-30T03:51:19.125Z,102194.48
2018-12-30T03:56:21.829Z,102208.84
2018-12-30T04:11:47.935Z,102220.55
2018-12-30T04:17:10.255Z,102237.14
2018-12-30T04:22:16.976Z,102250.20
2018-12-30T04:27:37.220Z,102253.66
2018-12-30T04:32:59.414Z,102110.32
2018-12-30T04:38:02.108Z,102243.19
2018-12-30T04:43:05.175Z,102269.36
2018-12-30T04:48:07.889Z,102281.06
2018-12-30T04:53:30.079Z,102292.88
2018-12-30T04:58:52.268Z,102343.36
2018-12-30T05:04:14.583Z,102322.46
2018-12-30T05:09:36.758Z,102337.27
2018-12-30T05:14:58.956Z,102238.16
2018-12-30T05:20:21.145Z,102350.31
2018-12-30T05:25:43.342Z,102373.02
2018-12-30T05:31:05.521Z,102224.27
2018-12-30T05:36:27.711Z,102376.45
2018-12-30T05:41:30.410Z,102105.69
2018-12-30T05:46:45.491Z,102373.44
2018-12-30T05:52:07.717Z,102398.67
2018-12-30T05:57:32.692Z,102415.21
2018-12-30T06:02:54.952Z,102417.42
2018-12-30T06:08:17.164Z,102431.80
2018-12-30T06:13:19.888Z,102423.09
2018-12-30T06:18:42.212Z,102422.64
2018-12-30T06:24:04.422Z,102460.10
2018-12-30T06:29:26.602Z,102424.44
2018-12-30T06:34:29.383Z,102448.82
2018-12-30T06:39:51.562Z,102456.66
2018-12-30T06:45:13.772Z,102461.02
2018-12-30T06:50:28.772Z,102468.85
2018-12-30T06:55:50.959Z,102482.77
2018-12-30T07:01:13.244Z,102488.01
2018-12-30T07:06:35.437Z,102365.22
2018-12-30T07:11:57.686Z,102480.59
2018-12-30T07:17:19.880Z,102484.08
2018-12-30T07:22:42.069Z,102489.28
2018-12-30T07:28:04.254Z,102370.45
2018-12-30T07:33:26.441Z,102489.72
2018-12-30T07:38:29.180Z,102366.11
2018-12-30T07:43:31.844Z,102501.06
2018-12-30T07:48:47.324Z,102501.08
2018-12-30T07:53:50.020Z,102126.89
2018-12-30T07:59:12.324Z,102516.31
2018-12-30T08:04:34.512Z,102402.23
2018-12-30T08:09:56.701Z,102527.64
2018-12-30T08:15:18.899Z,102363.92
2018-12-30T08:20:41.077Z,102529.81
2018-12-30T08:25:43.772Z,102557.25
2018-12-30T08:31:05.967Z,102534.60
2018-12-30T08:36:28.143Z,102427.47
2018-12-30T08:41:30.868Z,102537.63
2018-12-30T08:46:45.804Z,102545.42
2018-12-30T08:52:07.979Z,102533.67
2018-12-30T08:57:30.180Z,102556.33
2018-12-30T09:02:52.368Z,102555.02
2018-12-30T09:08:14.647Z,102555.43
2018-12-30T09:13:36.921Z,102557.58
2018-12-30T09:18:59.096Z,102534.45
2018-12-30T09:24:21.276Z,102538.81
2018-12-30T09:29:43.467Z,102431.34
2018-12-30T09:34:46.165Z,102541.78
2018-12-30T09:39:48.853Z,102545.71
2018-12-30T09:45:11.032Z,102544.38
2018-12-30T09:50:26.668Z,102550.47
2018-12-30T09:55:29.361Z,102547.05
2018-12-30T10:00:32.042Z,102564.83
2018-12-30T10:05:54.238Z,102556.13
2018-12-30T10:11:16.427Z,102567.47
2018-12-30T10:16:40.969Z,102567.48
2018-12-30T10:22:03.151Z,102329.90
2018-12-30T10:27:06.044Z,102559.09
2018-12-30T10:32:08.745Z,102575.27
2018-12-30T10:42:28.264Z,102560.77
2018-12-30T10:47:43.338Z,102549.83
2018-12-30T10:53:05.569Z,102551.65
2018-12-30T10:58:27.751Z,102564.30
2018-12-30T11:03:30.459Z,102518.97
2018-12-30T11:08:33.169Z,102525.79
2018-12-30T11:13:55.349Z,102537.64
2018-12-30T11:18:58.054Z,102544.98
2018-12-30T11:24:20.259Z,102551.27
2018-12-30T11:29:42.523Z,102530.76
2018-12-30T11:35:04.811Z,102547.09
2018-12-30T11:40:27.015Z,102551.14
2018-12-30T11:45:29.716Z,102566.56
2018-12-30T11:50:44.929Z,102542.63
2018-12-30T11:56:07.124Z,102418.19
2018-12-30T12:01:29.315Z,102543.84
2018-12-30T12:06:32.089Z,102540.77
2018-12-30T12:11:34.802Z,102552.65
2018-12-30T12:16:37.498Z,102548.71
2018-12-30T12:21:59.685Z,102559.13
2018-12-30T12:27:21.869Z,102564.00
2018-12-30T12:32:44.152Z,102568.34
2018-12-30T12:38:06.346Z,102334.06
2018-12-30T12:43:28.533Z,102564.72
2018-12-30T12:48:43.516Z,102563.92
2018-12-30T12:54:05.715Z,102563.16
2018-12-30T12:59:08.425Z,102471.48
2018-12-30T13:04:30.616Z,102586.29
2018-12-30T13:09:52.814Z,102599.83
2018-12-30T13:15:14.988Z,102589.97
2018-12-30T13:20:37.163Z,102587.22
2018-12-30T13:25:59.360Z,102602.50
2018-12-30T13:31:21.548Z,102591.56
2018-12-30T13:36:24.928Z,102573.17
2018-12-30T13:41:27.858Z,102577.16
2018-12-30T13:46:30.576Z,102584.62
2018-12-30T13:51:53.332Z,102569.90
2018-12-30T13:57:15.729Z,102588.59
2018-12-30T14:02:38.057Z,102182.95
2018-12-30T14:08:00.311Z,102639.73
2018-12-30T14:13:42.896Z,102310.33
2018-12-30T14:19:05.152Z,102461.17
2018-12-30T14:24:27.469Z,102555.91
2018-12-30T14:29:30.168Z,102577.34
2018-12-30T14:34:32.960Z,102555.49
2018-12-30T14:39:35.692Z,102556.39
2018-12-30T14:44:57.868Z,102557.36
2018-12-30T14:50:00.584Z,102562.16
2018-12-30T14:55:22.795Z,102552.99
2018-12-30T15:00:44.975Z,102576.59
2018-12-30T15:06:07.149Z,102584.89
2018-12-30T15:11:29.351Z,102497.41
2018-12-30T15:16:51.534Z,102573.13
2018-12-30T15:21:54.256Z,102588.39
2018-12-30T15:27:16.457Z,102603.69
2018-12-30T15:32:19.138Z,102625.95
2018-12-30T15:37:41.319Z,102612.89
2018-12-30T15:43:03.514Z,102651.73
2018-12-30T15:48:06.225Z,102652.64
2018-12-30T15:53:28.414Z,102619.89
2018-12-30T15:58:50.604Z,102620.34
2018-12-30T16:04:15.045Z,102642.16
2018-12-30T16:09:18.937Z,102639.08
2018-12-30T16:14:41.186Z,102625.11
2018-12-30T16:20:04.407Z,102616.37
2018-12-30T16:25:07.093Z,102621.21
2018-12-30T16:30:29.288Z,102630.39
2018-12-30T16:35:32.013Z,102637.81
2018-12-30T16:40:34.694Z,102628.64
2018-12-30T16:45:49.921Z,102634.34
2018-12-30T16:51:12.141Z,102569.91
2018-12-30T16:56:34.352Z,102667.48
2018-12-30T17:01:56.567Z,102659.19
2018-12-30T17:07:18.760Z,102644.34
2018-12-30T17:12:40.949Z,102644.78
2018-12-30T17:18:03.166Z,102634.32
2018-12-30T17:23:25.342Z,102643.91
2018-12-30T17:28:47.876Z,102650.05
2018-12-30T17:34:10.052Z,102614.77
2018-12-30T17:39:32.244Z,102360.00
2018-12-30T17:44:54.458Z,102670.56
2018-12-30T17:50:10.404Z,102671.42
2018-12-30T17:55:32.589Z,102664.45
2018-12-30T18:00:35.287Z,102670.98
2018-12-30T18:05:57.465Z,102671.41
2018-12-30T18:11:19.644Z,102710.70
2018-12-30T18:16:41.812Z,102704.15
2018-12-30T18:21:44.508Z,102698.50
2018-12-30T18:27:06.715Z,102694.57
2018-12-30T18:32:28.898Z,102694.14
2018-12-30T18:37:51.076Z,102581.25
2018-12-30T18:43:13.281Z,102585.18
2018-12-30T18:48:16.050Z,102467.50
2018-12-30T18:53:38.233Z,102701.53
2018-12-30T18:58:40.938Z,102701.13
2018-12-30T19:03:43.629Z,102689.76
2018-12-30T19:09:05.844Z,102677.98
2018-12-30T19:14:08.601Z,102664.48
2018-12-30T19:19:30.826Z,102667.98
2018-12-30T19:24:53.016Z,102654.03
2018-12-30T19:30:15.200Z,102644.00
2018-12-30T19:35:37.388Z,102652.73
2018-12-30T19:40:59.639Z,102644.44
2018-12-30T19:46:15.072Z,102653.61
2018-12-30T19:51:38.570Z,102677.56
2018-12-30T19:56:41.940Z,102657.08
2018-12-30T20:02:04.257Z,102650.53
2018-12-30T20:07:26.449Z,102647.94
2018-12-30T20:12:48.632Z,102638.33
2018-12-30T20:18:10.806Z,102635.28
2018-12-30T20:23:32.968Z,102629.17
2018-12-30T20:28:55.156Z,102522.81
2018-12-30T20:33:57.825Z,102634.87
2018-12-30T20:39:19.997Z,102629.19
2018-12-30T20:44:42.167Z,102630.06
2018-12-30T20:49:44.941Z,102649.22
2018-12-30T20:55:07.113Z,102621.31
2018-12-30T21:00:29.283Z,102629.62
2018-12-30T21:05:51.468Z,102623.52
2018-12-30T21:11:13.656Z,102598.23
2018-12-30T21:16:35.839Z,102341.69
2018-12-30T21:21:58.037Z,102631.34
2018-12-30T21:27:00.728Z,102638.35
2018-12-30T21:32:22.891Z,102630.48
2018-12-30T21:37:45.079Z,102589.96
2018-12-30T21:43:07.249Z,102620.91
2018-12-30T21:48:22.976Z,102634.41
2018-12-30T21:53:45.151Z,102606.09
2018-12-30T21:59:07.344Z,102611.75
2018-12-30T22:04:10.018Z,102625.70
2018-12-30T22:09:12.721Z,102606.07
2018-12-30T22:14:34.926Z,102604.77
2018-12-30T22:19:57.108Z,102618.73
2018-12-30T22:25:19.277Z,102614.80
2018-12-30T22:30:41.451Z,102623.06
2018-12-30T22:35:44.137Z,102645.32
2018-12-30T22:41:06.332Z,102626.58
2018-12-30T22:46:21.428Z,102622.63
2018-12-30T22:51:43.605Z,102636.16
2018-12-30T22:56:46.298Z,102399.59
2018-12-30T23:07:05.420Z,102638.77
2018-12-30T23:12:08.204Z,102634.41
2018-12-30T23:17:10.893Z,102635.72
2018-12-30T23:22:33.095Z,102624.41
2018-12-30T23:27:35.843Z,102632.23
2018-12-30T23:32:58.029Z,102623.09
2018-12-30T23:38:20.348Z,102559.45
2018-12-30T23:43:42.515Z,102609.13
2018-12-30T23:48:57.701Z,102606.06
2018-12-30T23:54:19.888Z,102607.38
2018-12-30T23:59:42.080Z,102576.89
